createdAt,value
2023-04-29T00:01:50.126Z,12.87
2023-04-29T00:04:18.026Z,13.17
2023-04-29T00:06:45.413Z,13.73
2023-04-29T00:09:14.123Z,13.27
2023-04-29T00:11:41.557Z,13.10
2023-04-29T00:14:08.887Z,11.93
2023-04-29T00:17:07.095Z,13.50
2023-04-29T00:19:34.544Z,12.57
2023-04-29T00:22:01.802Z,13.43
2023-04-29T00:24:30.418Z,11.27
2023-04-29T00:26:57.629Z,12.93
2023-04-29T00:29:24.877Z,15.18
2023-04-29T00:31:52.100Z,13.67
2023-04-29T00:34:34.680Z,12.97
2023-04-29T00:37:02.070Z,13.10
2023-04-29T00:39:30.653Z,12.93
2023-04-29T00:41:57.896Z,12.73
2023-04-29T00:44:25.176Z,12.03
2023-04-29T00:50:43.245Z,10.90
2023-04-29T00:53:10.922Z,10.50
2023-04-29T00:55:39.603Z,10.50
2023-04-29T00:58:06.799Z,11.20
2023-04-29T01:00:34.113Z,9.80
2023-04-29T01:03:01.414Z,11.43
2023-04-29T01:42:46.558Z,11.37
2023-04-29T01:45:17.281Z,13.30
2023-04-29T01:47:45.754Z,10.33
2023-04-29T01:50:12.993Z,11.00
2023-04-29T01:52:40.989Z,12.00
2023-04-29T01:55:21.133Z,11.37
2023-04-29T02:09:31.266Z,11.53
2023-04-29T02:12:07.298Z,11.90
2023-04-29T02:14:37.452Z,11.73
2023-04-29T02:17:05.676Z,10.53
2023-04-29T02:19:33.524Z,11.43
2023-04-29T02:22:01.348Z,11.50
2023-04-29T02:24:50.791Z,10.07
2023-04-29T02:30:24.027Z,10.67
2023-04-29T02:32:51.615Z,10.50
2023-04-29T02:35:18.827Z,10.07
2023-04-29T02:37:46.052Z,10.67
2023-04-29T02:40:13.768Z,10.87
2023-04-29T02:42:54.950Z,9.43
2023-04-29T02:45:22.579Z,10.27
2023-04-29T02:47:49.832Z,10.90
2023-04-29T02:50:17.058Z,9.90
2023-04-29T02:52:44.318Z,9.13
2023-04-29T02:55:30.744Z,10.17
2023-04-29T03:00:54.526Z,10.00
2023-04-29T03:03:22.212Z,8.80
2023-04-29T03:05:49.683Z,9.93
2023-04-29T03:08:16.966Z,10.80
2023-04-29T03:10:44.419Z,10.17
2023-04-29T03:15:57.343Z,10.50
2023-04-29T03:18:46.281Z,9.33
2023-04-29T03:21:13.552Z,11.47
2023-04-29T03:23:41.456Z,11.33
2023-04-29T03:35:00.258Z,10.33
2023-04-29T03:37:38.885Z,10.77
2023-04-29T03:40:18.065Z,8.93
2023-04-29T03:42:45.802Z,9.90
2023-04-29T03:45:13.288Z,10.90
2023-04-29T04:12:56.771Z,9.87
2023-04-29T04:15:26.406Z,11.07
2023-04-29T04:40:13.832Z,11.20
2023-04-29T04:43:02.437Z,11.43
2023-04-29T04:45:30.436Z,11.67
2023-04-29T04:48:07.586Z,10.63
2023-04-29T04:50:37.296Z,11.00
2023-04-29T04:53:04.538Z,11.37
2023-04-29T04:55:48.323Z,9.63
2023-04-29T04:58:32.419Z,9.20
2023-04-29T05:03:50.872Z,11.00
2023-04-29T05:06:18.679Z,10.57
2023-04-29T05:08:47.586Z,8.23
2023-04-29T05:11:19.053Z,10.83
2023-04-29T05:13:54.956Z,10.93
2023-04-29T05:16:34.764Z,11.30
2023-04-29T05:19:02.027Z,12.97
2023-04-29T05:21:32.982Z,9.00
2023-04-29T05:24:01.270Z,12.60
2023-04-29T05:29:48.978Z,11.77
2023-04-29T05:40:37.630Z,14.07
2023-04-29T05:43:28.022Z,14.30
2023-04-29T05:45:57.230Z,15.80
2023-04-29T05:48:25.657Z,16.07
2023-04-29T05:50:53.283Z,16.80
2023-04-29T05:53:21.275Z,15.57
2023-04-29T05:55:51.260Z,15.93
2023-04-29T05:58:20.442Z,15.73
2023-04-29T06:00:47.702Z,14.37
2023-04-29T06:03:20.300Z,16.70
2023-04-29T06:05:51.145Z,16.97
2023-04-29T06:08:26.242Z,15.43
2023-04-29T06:10:56.051Z,16.70
2023-04-29T06:13:23.444Z,17.10
2023-04-29T06:15:50.766Z,15.63
2023-04-29T06:18:18.496Z,16.93
2023-04-29T06:20:45.843Z,15.03
2023-04-29T06:23:13.096Z,16.13
2023-04-29T06:25:40.702Z,12.77
2023-04-29T06:28:10.682Z,14.10
2023-04-29T06:30:39.100Z,8.17
2023-04-29T06:33:06.880Z,12.93
2023-04-29T06:35:34.487Z,9.90
2023-04-29T06:38:12.204Z,13.10
2023-04-29T06:44:46.074Z,10.87
2023-04-29T06:47:32.473Z,11.53
2023-04-29T06:50:13.391Z,8.53
2023-04-29T06:52:40.625Z,12.73
2023-04-29T06:55:08.324Z,11.63
2023-04-29T06:57:35.934Z,8.73
2023-04-29T07:00:04.860Z,10.90
2023-04-29T07:02:33.563Z,10.90
2023-04-29T07:05:00.948Z,10.13
2023-04-29T07:07:28.221Z,9.90
2023-04-29T07:09:56.009Z,9.87
2023-04-29T07:12:43.227Z,8.60
2023-04-29T07:15:24.273Z,9.83
2023-04-29T07:17:52.495Z,5.80
2023-04-29T07:20:21.888Z,8.80
2023-04-29T07:22:50.189Z,9.80
2023-04-29T07:25:17.603Z,8.53
2023-04-29T07:27:45.057Z,7.53
2023-04-29T07:41:15.675Z,5.70
2023-04-29T07:43:44.716Z,8.53
2023-04-29T07:46:31.902Z,7.30
2023-04-29T08:42:40.843Z,6.53
2023-04-29T08:48:07.086Z,6.43
2023-04-29T09:02:09.968Z,6.33
2023-04-29T09:04:42.496Z,6.43
2023-04-29T09:07:11.642Z,7.73
2023-04-29T09:09:43.868Z,8.20
2023-04-29T09:12:17.665Z,6.43
2023-04-29T09:14:45.030Z,7.03
2023-04-29T09:17:24.571Z,7.20
2023-04-29T09:19:52.195Z,5.97
2023-04-29T09:22:22.465Z,5.77
2023-04-29T09:47:23.025Z,7.03
2023-04-29T09:58:59.708Z,6.33
2023-04-29T10:01:28.993Z,5.70
2023-04-29T10:03:57.293Z,4.43
2023-04-29T10:06:25.898Z,5.10
2023-04-29T10:08:54.984Z,5.87
2023-04-29T10:11:22.419Z,6.00
2023-04-29T10:13:51.501Z,4.70
2023-04-29T10:16:24.504Z,6.17
2023-04-29T10:18:55.355Z,5.40
2023-04-29T10:21:25.502Z,6.03
2023-04-29T10:23:53.452Z,5.90
2023-04-29T10:26:21.570Z,5.30
2023-04-29T10:32:50.539Z,5.17
2023-04-29T10:35:20.820Z,5.70
2023-04-29T10:37:48.515Z,5.17
2023-04-29T10:40:16.594Z,4.90
2023-04-29T10:45:24.593Z,5.27
2023-04-29T10:48:10.655Z,4.73
2023-04-29T10:51:00.250Z,5.93
2023-04-29T10:53:28.040Z,5.17
2023-04-29T10:55:57.346Z,4.43
2023-04-29T10:58:42.519Z,5.00
2023-04-29T11:01:11.263Z,5.33
2023-04-29T11:03:49.033Z,5.10
2023-04-29T11:06:18.005Z,5.20
2023-04-29T11:49:14.381Z,6.23
2023-04-29T11:51:41.685Z,5.20
2023-04-29T11:54:08.956Z,5.83
2023-04-29T11:56:37.971Z,6.60
2023-04-29T11:59:05.285Z,5.90
2023-04-29T12:01:32.549Z,5.43
2023-04-29T12:04:00.417Z,5.80
2023-04-29T12:06:31.083Z,5.33
2023-04-29T12:08:59.800Z,5.43
2023-04-29T12:11:27.165Z,4.90
2023-04-29T12:13:58.260Z,5.40
2023-04-29T12:16:26.473Z,6.03
2023-04-29T12:18:54.155Z,6.30
2023-04-29T12:21:22.554Z,5.63
2023-04-29T12:23:51.589Z,5.67
2023-04-29T12:26:19.030Z,6.53
2023-04-29T12:28:46.254Z,5.53
2023-04-29T12:31:15.670Z,7.63
2023-04-29T12:33:54.950Z,6.10
2023-04-29T12:36:22.237Z,5.97
2023-04-29T12:38:50.846Z,5.33
2023-04-29T12:41:18.075Z,6.70
2023-04-29T12:47:42.081Z,6.17
2023-04-29T12:50:09.659Z,5.50
2023-04-29T12:52:37.072Z,6.47
2023-04-29T12:55:06.003Z,6.17
2023-04-29T12:57:33.242Z,6.47
2023-04-29T13:00:00.597Z,5.90
2023-04-29T13:02:40.872Z,6.23
2023-04-29T13:05:08.864Z,6.03
2023-04-29T13:07:37.156Z,5.17
2023-04-29T13:10:06.370Z,6.00
2023-04-29T13:12:59.172Z,5.50
2023-04-29T13:21:42.263Z,4.93
2023-04-29T13:24:09.604Z,5.73
2023-04-29T13:26:38.308Z,5.40
2023-04-29T13:29:05.663Z,5.27
2023-04-29T13:31:39.428Z,4.67
2023-04-29T13:34:09.446Z,4.90
2023-04-29T13:36:37.091Z,5.73
2023-04-29T13:39:04.452Z,5.33
2023-04-29T13:41:44.219Z,5.67
2023-04-29T13:44:46.072Z,4.60
2023-04-29T13:47:25.536Z,4.80
2023-04-29T13:53:18.600Z,5.27
2023-04-29T14:00:38.275Z,3.63
2023-04-29T14:03:02.145Z,4.20
2023-04-29T14:05:30.894Z,5.07
2023-04-29T14:07:58.450Z,4.43
2023-04-29T14:10:25.682Z,5.20
2023-04-29T14:12:52.995Z,5.20
2023-04-29T14:15:20.313Z,4.70
2023-04-29T14:18:10.388Z,5.33
2023-04-29T14:21:05.579Z,4.60
2023-04-29T14:23:34.201Z,3.70
2023-04-29T14:28:31.639Z,4.60
2023-04-29T14:30:58.958Z,5.27
2023-04-29T14:33:26.556Z,3.70
2023-04-29T14:35:54.474Z,3.53
2023-04-29T14:38:24.369Z,3.73
2023-04-29T14:40:53.023Z,4.17
2023-04-29T14:43:20.218Z,3.77
2023-04-29T14:45:47.597Z,3.77
2023-04-29T14:48:20.071Z,5.20
2023-04-29T14:50:47.792Z,4.80
2023-04-29T14:53:14.984Z,4.03
2023-04-29T14:55:42.173Z,4.67
2023-04-29T15:10:21.730Z,5.60
2023-04-29T15:12:57.853Z,6.37
2023-04-29T15:18:10.504Z,5.83
2023-04-29T15:20:38.047Z,4.40
2023-04-29T15:23:05.614Z,4.63
2023-04-29T15:25:34.515Z,4.17
2023-04-29T15:28:02.209Z,4.67
2023-04-29T15:30:29.665Z,3.93
2023-04-29T15:32:58.665Z,3.80
2023-04-29T15:35:28.432Z,4.57
2023-04-29T15:37:55.693Z,3.93
2023-04-29T15:40:23.028Z,3.67
2023-04-29T15:42:51.771Z,4.93
2023-04-29T15:45:19.072Z,4.43
2023-04-29T15:47:46.417Z,3.87
2023-04-29T15:50:13.753Z,4.90
2023-04-29T15:55:18.721Z,5.00
2023-04-29T15:57:46.044Z,5.23
2023-04-29T16:00:14.945Z,5.00
2023-04-29T16:02:42.218Z,5.40
2023-04-29T16:05:09.675Z,5.17
2023-04-29T16:11:07.230Z,4.73
2023-04-29T16:13:36.240Z,4.23
2023-04-29T16:16:05.300Z,3.77
2023-04-29T16:18:32.496Z,3.33
2023-04-29T16:20:59.731Z,4.00
2023-04-29T16:23:26.969Z,4.33
2023-04-29T16:25:54.316Z,2.93
2023-04-29T16:28:21.913Z,2.47
2023-04-29T16:30:49.208Z,3.17
2023-04-29T16:33:18.022Z,3.37
2023-04-29T16:35:45.325Z,3.50
2023-04-29T16:38:12.936Z,3.00
2023-04-29T16:40:40.202Z,3.10
2023-04-29T16:43:07.480Z,3.10
2023-04-29T16:45:34.722Z,3.17
2023-04-29T16:48:02.100Z,3.27
2023-04-29T16:50:30.751Z,3.60
2023-04-29T16:52:58.037Z,3.17
2023-04-29T16:55:25.341Z,3.43
2023-04-29T16:58:13.162Z,3.50
2023-04-29T17:00:40.503Z,2.73
2023-04-29T17:03:07.794Z,4.20
2023-04-29T17:05:36.714Z,3.10
2023-04-29T17:08:04.568Z,3.10
2023-04-29T17:10:31.780Z,2.90
2023-04-29T17:12:59.034Z,2.50
2023-04-29T17:15:26.370Z,2.83
2023-04-29T17:17:53.953Z,2.93
2023-04-29T17:20:21.201Z,2.77
2023-04-29T17:22:49.914Z,2.60
2023-04-29T17:25:17.155Z,2.30
2023-04-29T17:27:44.697Z,2.40
2023-04-29T17:30:12.501Z,2.50
2023-04-29T17:32:39.788Z,2.53
2023-04-29T17:35:07.769Z,2.93
2023-04-29T17:37:53.916Z,2.83
2023-04-29T17:40:23.025Z,2.47
2023-04-29T17:42:50.325Z,2.93
2023-04-29T17:45:17.500Z,3.17
2023-04-29T17:47:44.761Z,2.10
2023-04-29T17:50:30.427Z,2.73
2023-04-29T17:52:58.063Z,2.10
2023-04-29T17:55:26.985Z,2.23
2023-04-29T17:57:55.569Z,2.77
2023-04-29T18:00:45.231Z,2.27
2023-04-29T18:03:12.689Z,2.30
2023-04-29T18:05:40.251Z,2.23
2023-04-29T18:08:07.443Z,2.17
2023-04-29T18:10:36.258Z,1.63
2023-04-29T18:13:22.035Z,2.27
2023-04-29T18:15:50.232Z,2.20
2023-04-29T18:18:17.553Z,2.50
2023-04-29T18:20:44.964Z,1.93
2023-04-29T18:23:32.238Z,2.17
2023-04-29T18:26:01.051Z,1.93
2023-04-29T18:28:28.476Z,2.30
2023-04-29T18:30:55.984Z,2.20
2023-04-29T18:33:23.378Z,2.10
2023-04-29T18:35:50.734Z,2.37
2023-04-29T18:38:17.925Z,2.13
2023-04-29T18:40:57.354Z,2.53
2023-04-29T18:43:33.084Z,2.73
2023-04-29T18:48:51.349Z,2.80
2023-04-29T18:51:18.654Z,2.30
2023-04-29T18:53:45.907Z,2.33
2023-04-29T18:56:13.222Z,2.30
2023-04-29T18:58:41.824Z,1.93
2023-04-29T19:01:09.159Z,3.03
2023-04-29T19:03:36.491Z,2.60
2023-04-29T19:06:03.865Z,2.33
2023-04-29T19:08:52.938Z,2.67
2023-04-29T19:11:21.222Z,3.20
2023-04-29T19:13:53.090Z,2.50
2023-04-29T19:16:21.378Z,2.20
2023-04-29T19:18:50.035Z,2.13
2023-04-29T19:21:33.863Z,2.57
2023-04-29T19:24:01.195Z,2.50
2023-04-29T19:26:32.872Z,2.53
2023-04-29T19:29:04.289Z,2.60
2023-04-29T19:31:32.495Z,2.73
2023-04-29T19:45:07.113Z,2.93
2023-04-29T19:47:35.015Z,3.10
2023-04-29T19:50:03.386Z,3.00
2023-04-29T19:58:16.877Z,2.90
2023-04-29T20:08:52.386Z,2.73
2023-04-29T20:11:23.753Z,3.13
2023-04-29T20:13:59.407Z,3.50
2023-04-29T20:22:05.654Z,3.20
2023-04-29T20:24:33.029Z,3.20
2023-04-29T20:27:01.723Z,2.53
2023-04-29T21:34:04.743Z,5.73
2023-04-29T21:36:31.954Z,5.60
2023-04-29T21:38:59.313Z,4.97
2023-04-29T21:41:27.151Z,5.30
2023-04-29T21:43:55.313Z,5.50
2023-04-29T21:46:22.985Z,5.57
2023-04-29T21:48:50.299Z,5.33
2023-04-29T21:51:19.117Z,5.93
2023-04-29T21:53:46.449Z,5.80
2023-04-29T21:56:13.780Z,6.13
2023-04-29T21:58:42.000Z,5.80
2023-04-29T22:04:39.475Z,5.63
2023-04-29T22:16:01.344Z,6.20
2023-04-29T22:18:28.603Z,6.17
2023-04-29T22:21:04.824Z,6.77
2023-04-29T22:23:33.609Z,6.33
2023-04-29T23:01:09.346Z,6.80
2023-04-29T23:03:47.186Z,7.57
2023-04-29T23:06:26.588Z,7.70
2023-04-29T23:09:06.194Z,7.70
2023-04-29T23:11:33.877Z,8.10
2023-04-29T23:14:01.152Z,8.47
2023-04-29T23:16:29.882Z,8.47
2023-04-29T23:18:57.318Z,9.23
2023-04-29T23:21:24.647Z,9.00
2023-04-29T23:26:43.441Z,9.07
2023-04-29T23:29:10.637Z,10.87
2023-04-29T23:31:39.744Z,9.47
2023-04-29T23:34:06.966Z,9.60
2023-04-29T23:36:34.190Z,9.50
2023-04-29T23:42:55.426Z,10.10
2023-04-29T23:45:22.678Z,10.03
2023-04-29T23:47:51.350Z,9.17
2023-04-29T23:50:18.587Z,10.00
2023-04-29T23:52:45.874Z,10.00
2023-04-29T23:55:13.320Z,10.07
